createdAt,value
2023-03-23T15:58:29.250Z,13.62
2023-03-23T16:01:05.823Z,13.61
2023-03-23T16:03:41.573Z,13.60
2023-03-23T16:06:23.924Z,13.60
2023-03-23T16:08:58.609Z,13.59
2023-03-23T16:11:32.356Z,13.57
2023-03-23T16:14:04.820Z,13.57
2023-03-23T16:16:38.939Z,13.57
2023-03-23T16:19:12.457Z,13.56
2023-03-23T16:21:45.089Z,13.55
2023-03-23T16:24:17.364Z,13.56
2023-03-23T16:26:49.661Z,13.57
2023-03-23T16:29:40.014Z,13.58
2023-03-23T16:32:14.444Z,13.58
2023-03-23T16:34:46.814Z,13.57
2023-03-23T16:37:19.276Z,13.55
2023-03-23T16:39:51.663Z,13.54
2023-03-23T16:42:23.975Z,13.53
2023-03-23T16:44:56.595Z,13.52
2023-03-23T16:47:29.020Z,13.51
2023-03-23T16:50:01.426Z,13.51
2023-03-23T16:52:34.753Z,13.51
2023-03-23T16:55:19.486Z,13.49
2023-03-23T16:57:52.672Z,13.47
2023-03-23T17:00:27.308Z,13.46
2023-03-23T17:02:59.803Z,13.45
2023-03-23T17:05:32.534Z,13.43
2023-03-23T17:08:05.273Z,13.41
2023-03-23T17:10:41.305Z,13.40
2023-03-23T17:13:14.317Z,13.41
2023-03-23T17:15:47.748Z,13.39
2023-03-23T17:18:20.373Z,13.37
2023-03-23T17:20:53.523Z,13.37
2023-03-23T17:23:26.210Z,13.36
2023-03-23T17:25:58.607Z,13.36
2023-03-23T17:28:31.112Z,13.36
2023-03-23T17:31:03.736Z,13.35
2023-03-23T17:33:36.143Z,13.34
2023-03-23T17:36:10.983Z,13.33
2023-03-23T17:38:41.778Z,13.33
2023-03-23T17:41:14.783Z,13.30
2023-03-23T17:43:47.079Z,13.29
2023-03-23T17:46:19.637Z,13.29
2023-03-23T17:48:52.850Z,13.28
2023-03-23T17:51:25.154Z,13.28
2023-03-23T17:53:57.659Z,13.27
2023-03-23T17:56:30.220Z,13.25
2023-03-23T17:59:02.604Z,13.24
2023-03-23T18:01:35.090Z,13.23
2023-03-23T18:04:07.924Z,13.21
2023-03-23T18:06:40.248Z,13.21
2023-03-23T18:09:13.033Z,13.19
2023-03-23T18:11:45.466Z,13.18
2023-03-23T18:14:18.141Z,13.18
2023-03-23T18:16:50.657Z,13.18
2023-03-23T18:19:23.043Z,13.18
2023-03-23T18:21:55.588Z,13.16
2023-03-23T18:24:27.962Z,13.16
2023-03-23T18:27:00.290Z,13.16
2023-03-23T18:29:32.667Z,13.14
2023-03-23T18:32:07.354Z,13.14
2023-03-23T18:34:41.946Z,13.14
2023-03-23T18:37:14.394Z,13.13
2023-03-23T18:39:46.850Z,13.12
2023-03-23T18:42:19.222Z,13.11
2023-03-23T18:44:51.636Z,13.11
2023-03-23T18:47:24.126Z,13.10
2023-03-23T18:49:56.858Z,13.08
2023-03-23T18:52:31.050Z,13.07
2023-03-23T18:55:03.807Z,13.07
2023-03-23T18:57:36.284Z,13.06
2023-03-23T19:00:12.185Z,13.05
2023-03-23T19:02:44.799Z,13.03
2023-03-23T19:05:24.885Z,13.02
2023-03-23T19:07:58.302Z,13.00
2023-03-23T19:10:31.415Z,12.98
2023-03-23T19:13:04.169Z,12.97
2023-03-23T19:15:38.363Z,12.94
2023-03-23T19:18:09.819Z,12.93
2023-03-23T19:23:19.791Z,12.86
2023-03-23T19:25:54.077Z,12.85
2023-03-23T19:31:03.121Z,12.83
2023-03-23T19:33:35.636Z,12.82
2023-03-23T19:36:12.956Z,12.80
2023-03-23T19:38:45.967Z,12.77
2023-03-23T19:41:19.375Z,12.75
2023-03-23T19:43:51.941Z,12.73
2023-03-23T19:46:24.339Z,12.70
2023-03-23T19:48:57.663Z,12.68
2023-03-23T19:51:30.689Z,12.65
2023-03-23T19:54:03.179Z,12.63
2023-03-23T19:56:36.293Z,12.61
2023-03-23T19:59:10.725Z,12.60
2023-03-23T20:01:44.277Z,12.58
2023-03-23T20:04:18.771Z,12.57
2023-03-23T20:06:52.389Z,12.55
2023-03-23T20:09:25.355Z,12.54
2023-03-23T20:11:58.407Z,12.52
2023-03-23T20:14:31.269Z,12.52
2023-03-23T20:17:05.634Z,12.49
2023-03-23T20:19:38.748Z,12.49
2023-03-23T20:22:11.183Z,12.50
2023-03-23T20:24:45.322Z,12.50
2023-03-23T20:27:18.274Z,12.50
2023-03-23T20:29:52.455Z,12.51
2023-03-23T20:32:25.110Z,12.51
2023-03-23T20:34:57.706Z,12.52
2023-03-23T20:37:31.288Z,12.52
2023-03-23T20:40:07.188Z,12.52
2023-03-23T20:42:43.973Z,12.53
2023-03-23T20:45:18.581Z,12.54
2023-03-23T20:47:51.018Z,12.55
2023-03-23T20:50:23.744Z,12.53
2023-03-23T20:52:58.171Z,12.53
2023-03-23T20:55:31.563Z,12.52
2023-03-23T20:58:05.175Z,12.52
2023-03-23T21:00:37.518Z,12.51
2023-03-23T21:03:11.491Z,12.51
2023-03-23T21:05:46.668Z,12.50
2023-03-23T21:08:19.762Z,12.50
2023-03-23T21:10:52.820Z,12.49
2023-03-23T21:13:25.858Z,12.49
2023-03-23T21:15:58.506Z,12.48
2023-03-23T21:18:31.055Z,12.47
2023-03-23T21:21:04.487Z,12.47
2023-03-23T21:23:38.592Z,12.45
2023-03-23T21:26:13.600Z,12.43
2023-03-23T21:28:47.051Z,12.43
2023-03-23T21:31:19.881Z,12.42
2023-03-23T21:33:52.576Z,12.42
2023-03-23T21:36:26.887Z,12.42
2023-03-23T21:38:59.747Z,12.40
2023-03-23T21:41:42.013Z,12.38
2023-03-23T21:44:15.413Z,12.36
2023-03-23T21:46:47.832Z,12.36
2023-03-23T21:49:20.271Z,12.36
2023-03-23T21:51:52.585Z,12.35
2023-03-23T21:54:24.866Z,12.34
2023-03-23T21:56:57.902Z,12.34
2023-03-23T21:59:30.408Z,12.34
2023-03-23T22:02:03.153Z,12.35
2023-03-23T22:04:35.650Z,12.34
2023-03-23T22:07:08.533Z,12.33
2023-03-23T22:09:45.422Z,12.33
2023-03-23T22:12:18.398Z,12.33
2023-03-23T22:14:50.778Z,12.31
2023-03-23T22:17:23.157Z,12.29
2023-03-23T22:19:55.469Z,12.26
2023-03-23T22:22:27.843Z,12.24
2023-03-23T22:25:00.218Z,12.23
2023-03-23T22:27:32.858Z,12.22
2023-03-23T22:30:05.815Z,12.20
2023-03-23T22:32:38.124Z,12.18
2023-03-23T22:35:12.678Z,12.14
2023-03-23T22:37:45.077Z,12.12
2023-03-23T22:40:18.080Z,12.10
2023-03-23T22:42:50.472Z,12.07
2023-03-23T22:45:24.235Z,12.05
2023-03-23T22:47:57.774Z,12.04
2023-03-23T22:50:30.319Z,12.04
2023-03-23T22:53:02.624Z,12.04
2023-03-23T22:55:35.245Z,12.04
2023-03-23T22:58:07.567Z,12.02
2023-03-23T23:00:40.347Z,12.02
2023-03-23T23:03:13.070Z,12.02
2023-03-23T23:05:49.774Z,12.04
2023-03-23T23:08:23.064Z,12.02
2023-03-23T23:10:57.835Z,12.02
2023-03-23T23:13:33.110Z,12.02
2023-03-23T23:16:07.347Z,12.01
2023-03-23T23:18:40.589Z,12.00
2023-03-23T23:21:16.492Z,11.99
2023-03-23T23:23:50.964Z,11.98
2023-03-23T23:26:23.875Z,11.98
2023-03-23T23:28:56.777Z,11.98
2023-03-23T23:31:32.632Z,11.97
2023-03-23T23:34:06.278Z,11.98
2023-03-23T23:36:38.612Z,11.99
2023-03-23T23:39:12.208Z,11.98
2023-03-23T23:41:44.440Z,11.96
2023-03-23T23:44:17.005Z,11.94
2023-03-23T23:46:49.222Z,11.94
2023-03-23T23:49:23.087Z,11.93
2023-03-23T23:51:55.624Z,11.91
2023-03-23T23:54:30.205Z,11.92
2023-03-23T23:57:03.753Z,11.93
2023-03-23T23:59:36.150Z,11.92
